Half Day, Illinois
Current Conditions -  °F | °C
As of 9:52 AM on Saturday 25 Oct 2014 (Local Time) from KPWK Reporting Station
Clear Clear  
Wind Chill: 18°   Ceiling: Unl
Heat Index: 18°   Visibility: 10mi
Dew Point: 10°   Wind: 13mph
Humidity: 58%   Direction: 320°NW
Pressure: 29.96"   Gusts: NA
Location:  42.1941°N, 87.9317°W
Report Text: KPWK 251452Z 32011KT 10SM CLR 18/10 A2996 RMK AO2 SLP142 T01830100 53013
Loading
Personal Weather Stations






























Interactive Weather Map
Tropical Storm Tracking
New forecast layout! Learn more

10-Day Weather Forecast

Advertisements
Track Severe Weather on mobile